createdAt,value
2022-10-12T00:02:00.069Z,10.30
2022-10-12T00:04:28.429Z,12.80
2022-10-12T00:07:03.060Z,14.03
2022-10-12T00:09:31.112Z,11.53
2022-10-12T00:12:05.906Z,17.37
2022-10-12T00:14:43.960Z,11.23
2022-10-12T00:17:13.421Z,13.43
2022-10-12T00:19:47.916Z,11.30
2022-10-12T00:22:16.150Z,10.37
2022-10-12T00:24:50.932Z,10.43
2022-10-12T00:27:19.019Z,11.93
2022-10-12T00:29:53.926Z,13.73
2022-10-12T00:32:23.692Z,11.90
2022-10-12T00:34:57.968Z,10.50
2022-10-12T00:37:26.122Z,11.90
2022-10-12T00:40:00.956Z,9.80
2022-10-12T00:42:29.143Z,11.83
2022-10-12T00:45:03.943Z,13.47
2022-10-12T00:47:36.424Z,15.00
2022-10-12T00:50:17.961Z,10.23
2022-10-12T00:52:51.007Z,10.00
2022-10-12T00:55:28.937Z,14.07
2022-10-12T00:58:04.105Z,12.70
2022-10-12T01:00:39.062Z,13.77
2022-10-12T01:03:10.794Z,12.23
2022-10-12T01:05:47.977Z,10.77
2022-10-12T01:08:16.085Z,10.93
2022-10-12T01:10:53.962Z,12.20
2022-10-12T01:13:22.221Z,12.50
2022-10-12T01:16:09.963Z,9.90
2022-10-12T01:18:45.255Z,11.27
2022-10-12T01:21:25.976Z,11.77
2022-10-12T01:24:08.238Z,14.63
2022-10-12T01:27:09.995Z,15.57
2022-10-12T01:30:03.615Z,11.53
2022-10-12T01:32:42.090Z,13.17
2022-10-12T01:35:20.779Z,11.87
2022-10-12T01:38:05.003Z,15.37
2022-10-12T01:40:44.993Z,15.67
2022-10-12T01:43:13.217Z,16.60
2022-10-12T01:45:48.984Z,11.87
2022-10-12T01:48:17.945Z,15.70
2022-10-12T01:50:57.013Z,11.90
2022-10-12T01:53:34.614Z,13.63
2022-10-12T01:56:17.002Z,12.53
2022-10-12T01:58:59.444Z,13.63
2022-10-12T02:01:41.015Z,14.20
2022-10-12T02:04:19.883Z,11.37
2022-10-12T02:06:59.022Z,13.87
2022-10-12T02:09:30.525Z,15.33
2022-10-12T02:12:10.028Z,16.70
2022-10-12T02:14:43.098Z,15.33
2022-10-12T02:17:23.057Z,13.73
2022-10-12T02:19:56.952Z,18.17
2022-10-12T02:22:35.024Z,13.10
2022-10-12T02:25:07.491Z,14.37
2022-10-12T02:27:44.088Z,14.63
2022-10-12T02:30:13.716Z,17.17
2022-10-12T02:32:58.034Z,11.70
2022-10-12T02:35:33.189Z,14.37
2022-10-12T02:38:13.028Z,14.80
2022-10-12T02:40:47.816Z,14.77
2022-10-12T02:43:27.040Z,17.60
2022-10-12T02:45:58.002Z,16.33
2022-10-12T02:48:36.059Z,18.13
2022-10-12T02:51:04.772Z,14.20
2022-10-12T02:53:39.075Z,20.33
2022-10-12T02:56:17.231Z,13.40
2022-10-12T02:58:59.043Z,13.70
2022-10-12T03:01:27.430Z,12.77
2022-10-12T03:04:03.084Z,16.10
2022-10-12T03:06:31.131Z,18.27
2022-10-12T03:09:06.084Z,29.20
2022-10-12T03:11:34.152Z,18.93
2022-10-12T03:14:09.088Z,20.03
2022-10-12T03:16:37.648Z,18.87
2022-10-12T03:19:14.162Z,19.50
2022-10-12T03:21:42.339Z,14.90
2022-10-12T03:24:17.081Z,14.23
2022-10-12T03:26:45.194Z,16.27
2022-10-12T03:29:20.230Z,15.90
2022-10-12T03:31:48.465Z,12.33
2022-10-12T03:34:24.090Z,13.43
2022-10-12T03:36:52.173Z,16.23
2022-10-12T03:39:27.103Z,12.97
2022-10-12T03:41:55.186Z,15.30
2022-10-12T03:44:30.095Z,14.87
2022-10-12T03:46:58.238Z,15.13
2022-10-12T03:49:34.141Z,11.03
2022-10-12T03:52:02.394Z,13.83
2022-10-12T03:54:37.095Z,12.20
2022-10-12T03:57:25.115Z,15.17
2022-10-12T03:59:53.240Z,17.00
2022-10-12T04:02:28.107Z,15.40
2022-10-12T04:04:57.508Z,16.20
2022-10-12T04:07:32.157Z,12.57
2022-10-12T04:10:00.365Z,14.57
2022-10-12T04:12:35.155Z,16.43
2022-10-12T04:15:03.238Z,11.47
2022-10-12T04:17:38.390Z,13.17
2022-10-12T04:20:08.950Z,12.73
2022-10-12T04:22:43.135Z,14.43
2022-10-12T04:25:12.909Z,11.37
2022-10-12T04:27:47.149Z,11.93
2022-10-12T04:30:15.394Z,15.93
2022-10-12T04:32:50.153Z,13.87
2022-10-12T04:35:19.680Z,12.60
2022-10-12T04:37:54.148Z,13.33
2022-10-12T04:40:22.253Z,12.20
2022-10-12T04:42:57.093Z,14.17
2022-10-12T04:45:25.237Z,16.93
2022-10-12T04:48:00.150Z,11.70
2022-10-12T04:50:30.255Z,14.07
2022-10-12T04:53:05.193Z,14.23
2022-10-12T04:55:33.377Z,12.67
2022-10-12T04:58:15.205Z,16.77
2022-10-12T05:00:43.293Z,14.40
2022-10-12T05:03:18.154Z,15.63
2022-10-12T05:05:50.407Z,13.97
2022-10-12T05:08:25.221Z,13.07
2022-10-12T05:10:53.584Z,14.47
2022-10-12T05:13:28.189Z,16.60
2022-10-12T05:15:56.388Z,13.60
2022-10-12T05:18:31.233Z,17.03
2022-10-12T05:21:00.698Z,13.20
2022-10-12T05:23:35.191Z,13.60
2022-10-12T05:26:03.203Z,17.03
2022-10-12T05:28:41.124Z,12.47
2022-10-12T05:31:09.795Z,14.40
2022-10-12T05:33:44.233Z,13.23
2022-10-12T05:36:13.740Z,16.80
2022-10-12T05:38:48.219Z,14.93
2022-10-12T05:41:16.437Z,15.27
2022-10-12T05:43:51.189Z,16.53
2022-10-12T05:46:19.280Z,17.53
2022-10-12T05:48:54.211Z,15.10
2022-10-12T05:51:28.607Z,14.83
2022-10-12T05:54:03.255Z,11.57
2022-10-12T05:56:31.601Z,16.83
2022-10-12T05:59:13.232Z,16.47
2022-10-12T06:01:41.440Z,14.83
2022-10-12T06:04:16.256Z,11.97
2022-10-12T06:06:45.816Z,12.93
2022-10-12T06:09:20.331Z,18.07
2022-10-12T06:11:50.784Z,14.00
2022-10-12T06:14:25.274Z,15.57
2022-10-12T06:16:54.567Z,14.07
2022-10-12T06:19:29.265Z,14.53
2022-10-12T06:21:58.664Z,12.70
2022-10-12T06:24:33.289Z,11.97
2022-10-12T06:27:21.364Z,11.93
2022-10-12T06:29:56.508Z,14.50
2022-10-12T06:32:25.095Z,13.67
2022-10-12T06:35:00.496Z,14.80
2022-10-12T06:37:49.216Z,12.50
2022-10-12T06:40:25.290Z,13.20
2022-10-12T06:42:57.683Z,15.40
2022-10-12T06:45:33.497Z,12.83
2022-10-12T06:48:02.227Z,16.17
2022-10-12T06:50:37.500Z,15.73
2022-10-12T06:53:07.736Z,13.83
2022-10-12T06:55:42.332Z,18.40
2022-10-12T06:58:10.785Z,16.30
2022-10-12T07:00:46.361Z,15.23
2022-10-12T07:03:15.413Z,11.13
2022-10-12T07:05:50.497Z,13.47
2022-10-12T07:08:20.498Z,13.27
2022-10-12T07:10:59.054Z,12.80
2022-10-12T07:13:27.763Z,13.93
2022-10-12T07:16:02.410Z,10.93
2022-10-12T07:18:31.026Z,13.03
2022-10-12T07:21:06.302Z,17.40
2022-10-12T07:23:40.167Z,15.13
2022-10-12T07:26:17.574Z,14.47
2022-10-12T07:28:59.405Z,15.80
2022-10-12T07:31:28.040Z,13.73
2022-10-12T07:34:03.360Z,13.73
2022-10-12T07:36:57.536Z,12.00
2022-10-12T07:39:29.475Z,15.67
2022-10-12T07:41:58.091Z,13.77
2022-10-12T07:44:33.421Z,16.80
2022-10-12T07:47:02.206Z,12.63
2022-10-12T07:49:37.588Z,14.30
2022-10-12T07:52:06.285Z,13.63
2022-10-12T07:54:43.365Z,13.57
2022-10-12T07:57:11.907Z,12.90
2022-10-12T07:59:47.650Z,13.37
2022-10-12T08:02:16.100Z,15.70
2022-10-12T08:04:51.376Z,14.43
2022-10-12T08:07:20.084Z,11.40
2022-10-12T08:09:57.399Z,10.53
2022-10-12T08:12:26.019Z,12.60
2022-10-12T08:15:01.816Z,13.10
2022-10-12T08:17:30.271Z,14.30
2022-10-12T08:20:05.501Z,13.50
2022-10-12T08:22:34.048Z,13.50
2022-10-12T08:25:10.428Z,12.83
2022-10-12T08:27:45.719Z,11.73
2022-10-12T08:30:27.455Z,11.90
2022-10-12T08:32:55.703Z,11.60
2022-10-12T08:35:30.551Z,11.93
2022-10-12T08:37:59.073Z,13.43
2022-10-12T08:40:39.599Z,11.00
2022-10-12T08:43:18.196Z,11.53
2022-10-12T08:46:00.758Z,13.77
2022-10-12T08:48:33.819Z,14.37
2022-10-12T08:51:14.333Z,13.93
2022-10-12T08:53:49.739Z,9.57
2022-10-12T08:56:27.420Z,9.97
2022-10-12T08:58:56.452Z,14.50
2022-10-12T09:01:36.582Z,11.00
2022-10-12T09:04:19.041Z,9.77
2022-10-12T09:06:58.431Z,11.87
2022-10-12T09:09:43.126Z,12.73
2022-10-12T09:12:32.399Z,12.90
2022-10-12T09:15:03.958Z,10.57
2022-10-12T09:17:44.613Z,14.63
2022-10-12T09:20:19.817Z,12.40
2022-10-12T09:22:58.478Z,14.77
2022-10-12T09:25:42.715Z,15.10
2022-10-12T09:28:33.590Z,9.60
2022-10-12T09:31:14.257Z,11.27
2022-10-12T09:33:52.467Z,13.57
2022-10-12T09:36:23.391Z,12.37
2022-10-12T09:38:59.517Z,15.80
2022-10-12T09:41:33.664Z,11.07
2022-10-12T09:44:16.519Z,10.90
2022-10-12T09:46:49.883Z,10.40
2022-10-12T09:49:24.517Z,10.20
2022-10-12T09:52:02.083Z,13.13
2022-10-12T09:54:37.573Z,10.73
2022-10-12T09:57:06.157Z,9.47
2022-10-12T09:59:46.702Z,13.30
2022-10-12T10:02:17.495Z,10.53
2022-10-12T10:04:53.462Z,9.50
2022-10-12T10:07:26.003Z,9.80
2022-10-12T10:10:26.706Z,10.60
2022-10-12T10:13:01.441Z,12.27
2022-10-12T10:15:45.480Z,9.63
2022-10-12T10:18:24.204Z,8.00
2022-10-12T10:21:02.488Z,7.30
2022-10-12T10:23:32.913Z,8.87
2022-10-12T10:26:12.551Z,9.17
2022-10-12T10:28:51.032Z,8.63
2022-10-12T10:31:36.567Z,8.50
2022-10-12T10:34:12.997Z,7.87
2022-10-12T10:36:53.506Z,10.20
2022-10-12T10:39:26.363Z,7.87
2022-10-12T10:42:02.569Z,9.93
2022-10-12T10:44:33.690Z,11.60
2022-10-12T10:47:15.539Z,8.23
2022-10-12T10:49:49.455Z,11.03
2022-10-12T10:52:30.692Z,7.60
2022-10-12T10:55:26.243Z,8.90
2022-10-12T10:58:09.705Z,8.80
2022-10-12T11:00:42.411Z,7.07
2022-10-12T11:03:25.517Z,7.97
2022-10-12T11:05:58.394Z,7.50
2022-10-12T11:08:36.546Z,6.67
2022-10-12T11:11:11.020Z,8.13
2022-10-12T11:13:50.793Z,11.00
2022-10-12T11:16:30.668Z,8.63
2022-10-12T11:19:10.635Z,7.17
2022-10-12T11:21:44.892Z,11.60
2022-10-12T11:24:24.799Z,7.67
2022-10-12T11:27:05.349Z,8.93
2022-10-12T11:30:02.778Z,7.40
2022-10-12T11:32:45.144Z,5.63
2022-10-12T11:35:34.555Z,7.97
2022-10-12T11:38:11.582Z,8.57
2022-10-12T11:41:19.089Z,7.13
2022-10-12T11:43:51.682Z,7.17
2022-10-12T11:46:31.668Z,11.43
2022-10-12T11:49:07.857Z,6.77
2022-10-12T11:51:44.602Z,6.40
2022-10-12T11:54:23.709Z,7.37
2022-10-12T11:57:01.604Z,7.23
2022-10-12T11:59:36.163Z,8.23
2022-10-12T12:02:20.776Z,5.40
2022-10-12T12:04:50.858Z,9.73
2022-10-12T12:07:51.564Z,6.83
2022-10-12T12:10:59.791Z,8.63
2022-10-12T12:13:35.597Z,8.20
2022-10-12T12:16:43.881Z,7.07
2022-10-12T12:19:47.156Z,7.93
2022-10-12T12:22:26.588Z,6.53
2022-10-12T12:25:33.718Z,8.37
2022-10-12T12:28:24.972Z,5.97
2022-10-12T12:31:08.603Z,6.53
2022-10-12T12:33:42.089Z,6.77
2022-10-12T12:36:19.850Z,8.90
2022-10-12T12:38:53.077Z,7.27
2022-10-12T12:41:29.752Z,7.47
2022-10-12T12:44:01.835Z,7.83
2022-10-12T12:47:45.020Z,9.37
2022-10-12T12:50:31.117Z,8.50
2022-10-12T12:53:13.652Z,11.53
2022-10-12T12:56:03.870Z,7.47
2022-10-12T12:58:55.626Z,9.10
2022-10-12T13:01:44.933Z,8.77
2022-10-12T13:04:58.975Z,9.80
2022-10-12T13:08:04.117Z,6.87
2022-10-12T13:10:50.670Z,8.63
2022-10-12T13:13:44.708Z,10.13
2022-10-12T13:19:23.811Z,6.57
2022-10-12T13:22:02.685Z,6.67
2022-10-12T13:24:40.210Z,8.87
2022-10-12T13:27:25.685Z,9.27
2022-10-12T13:30:05.498Z,7.80
2022-10-12T13:32:50.738Z,9.03
2022-10-12T13:35:28.465Z,9.17
2022-10-12T13:38:13.739Z,5.93
2022-10-12T13:40:45.110Z,8.27
2022-10-12T13:43:39.755Z,7.83
2022-10-12T13:46:10.508Z,8.07
2022-10-12T13:49:01.088Z,8.73
2022-10-12T13:51:32.933Z,8.77
2022-10-12T13:54:09.706Z,9.23
2022-10-12T13:56:38.275Z,7.63
2022-10-12T13:59:18.372Z,7.93
2022-10-12T14:01:55.905Z,8.50
2022-10-12T14:04:35.875Z,8.17
2022-10-12T14:07:15.730Z,10.17
2022-10-12T14:09:47.458Z,9.43
2022-10-12T14:12:25.616Z,7.63
2022-10-12T14:14:55.453Z,10.40
2022-10-12T14:17:31.747Z,10.00
2022-10-12T14:20:18.240Z,8.83
2022-10-12T14:22:57.769Z,8.00
2022-10-12T14:25:28.215Z,8.43
2022-10-12T14:28:12.003Z,9.47
2022-10-12T14:30:59.280Z,6.20
2022-10-12T14:33:35.757Z,8.67
2022-10-12T14:36:15.644Z,9.93
2022-10-12T14:38:53.755Z,7.47
2022-10-12T14:41:34.434Z,6.67
2022-10-12T14:44:20.117Z,7.83
2022-10-12T14:46:53.624Z,6.40
2022-10-12T14:49:31.752Z,8.83
2022-10-12T14:52:02.215Z,8.57
2022-10-12T14:54:38.826Z,8.43
2022-10-12T14:57:14.696Z,7.13
2022-10-12T14:59:49.827Z,9.37
2022-10-12T15:02:20.959Z,7.57
2022-10-12T15:04:57.008Z,6.90
2022-10-12T15:07:27.844Z,6.17
2022-10-12T15:10:04.507Z,7.97
2022-10-12T15:12:33.552Z,6.70
2022-10-12T15:15:09.810Z,8.93
2022-10-12T15:17:38.496Z,7.07
2022-10-12T15:20:13.772Z,9.97
2022-10-12T15:22:42.367Z,14.17
2022-10-12T15:25:25.747Z,8.33
2022-10-12T15:28:14.158Z,9.27
2022-10-12T15:31:12.205Z,9.63
2022-10-12T15:33:37.262Z,8.80
2022-10-12T15:36:13.003Z,7.17
2022-10-12T15:38:41.641Z,8.83
2022-10-12T15:41:24.967Z,9.13
2022-10-12T15:43:53.754Z,7.33
2022-10-12T15:46:28.855Z,6.37
2022-10-12T15:48:57.277Z,9.20
2022-10-12T15:51:33.802Z,7.17
2022-10-12T15:54:02.305Z,9.77
2022-10-12T15:56:38.891Z,8.17
2022-10-12T15:59:07.929Z,6.67
2022-10-12T16:01:43.751Z,11.37
2022-10-12T16:04:16.318Z,12.43
2022-10-12T16:06:50.800Z,7.10
2022-10-12T16:09:19.210Z,10.30
2022-10-12T16:11:56.875Z,9.33
2022-10-12T16:14:25.339Z,8.50
2022-10-12T16:17:02.750Z,14.40
2022-10-12T16:19:31.058Z,10.53
2022-10-12T16:22:07.864Z,7.73
2022-10-12T16:24:36.564Z,7.53
2022-10-12T16:27:13.240Z,11.17
2022-10-12T16:29:54.526Z,7.03
2022-10-12T16:32:29.853Z,7.87
2022-10-12T16:34:58.297Z,7.77
2022-10-12T16:37:32.842Z,8.23
2022-10-12T16:40:02.178Z,8.90
2022-10-12T16:42:39.059Z,6.47
2022-10-12T16:45:08.804Z,7.67
2022-10-12T16:47:45.095Z,8.77
2022-10-12T16:50:14.218Z,14.30
2022-10-12T16:52:48.884Z,17.33
2022-10-12T16:55:17.927Z,13.43
2022-10-12T16:57:55.173Z,11.03
2022-10-12T17:00:23.737Z,10.77
2022-10-12T17:02:58.921Z,8.17
2022-10-12T17:05:27.537Z,8.20
2022-10-12T17:08:03.029Z,7.63
2022-10-12T17:10:31.484Z,11.30
2022-10-12T17:13:09.887Z,24.17
2022-10-12T17:15:49.073Z,19.90
2022-10-12T17:18:17.541Z,14.37
2022-10-12T17:20:53.045Z,10.50
2022-10-12T17:23:21.511Z,14.40
2022-10-12T17:25:55.852Z,13.60
2022-10-12T17:28:46.119Z,18.30
2022-10-12T17:31:20.922Z,20.23
2022-10-12T17:33:49.327Z,18.97
2022-10-12T17:36:28.234Z,12.70
2022-10-12T17:38:58.391Z,14.57
2022-10-12T17:41:35.003Z,21.03
2022-10-12T17:44:08.650Z,17.20
2022-10-12T17:46:44.071Z,17.20
2022-10-12T17:49:14.583Z,12.33
2022-10-12T17:51:49.969Z,14.00
2022-10-12T17:54:18.604Z,12.47
2022-10-12T17:56:54.118Z,13.70
2022-10-12T17:59:24.939Z,13.87
2022-10-12T18:02:00.009Z,12.30
2022-10-12T18:04:28.561Z,15.37
2022-10-12T18:07:04.069Z,10.63
2022-10-12T18:09:33.520Z,11.80
2022-10-12T18:12:08.933Z,13.97
2022-10-12T18:14:39.058Z,11.77
2022-10-12T18:17:14.121Z,11.77
2022-10-12T18:19:42.794Z,11.60
2022-10-12T18:22:18.336Z,11.53
2022-10-12T18:24:48.987Z,8.97
2022-10-12T18:27:24.146Z,9.80
2022-10-12T18:30:14.163Z,11.20
2022-10-12T18:32:49.002Z,9.83
2022-10-12T18:35:17.754Z,11.97
2022-10-12T18:37:53.140Z,8.83
2022-10-12T18:40:21.754Z,9.73
2022-10-12T18:42:57.040Z,10.23
2022-10-12T18:45:27.059Z,11.60
2022-10-12T18:48:02.205Z,20.03
2022-10-12T18:50:30.781Z,12.47
2022-10-12T18:53:06.219Z,15.33
2022-10-12T18:55:38.660Z,19.00
2022-10-12T18:58:14.153Z,21.27
2022-10-12T19:00:44.310Z,20.53
2022-10-12T19:03:20.927Z,16.93
2022-10-12T19:05:49.541Z,12.30
2022-10-12T19:08:24.193Z,10.37
2022-10-12T19:10:52.696Z,9.17
2022-10-12T19:13:28.072Z,11.13
2022-10-12T19:15:57.907Z,12.30
2022-10-12T19:18:33.357Z,12.57
2022-10-12T19:21:05.617Z,16.70
2022-10-12T19:23:41.178Z,11.90
2022-10-12T19:26:12.237Z,12.77
2022-10-12T19:28:48.107Z,10.70
2022-10-12T19:31:27.064Z,11.33
2022-10-12T19:34:05.204Z,11.13
2022-10-12T19:36:34.622Z,10.50
2022-10-12T19:39:13.088Z,8.40
2022-10-12T19:41:42.067Z,9.93
2022-10-12T19:44:18.071Z,10.77
2022-10-12T19:46:49.348Z,11.77
2022-10-12T19:49:26.087Z,10.77
2022-10-12T19:51:54.615Z,8.70
2022-10-12T19:54:34.087Z,10.43
2022-10-12T19:57:04.716Z,12.20
2022-10-12T19:59:40.033Z,13.47
2022-10-12T20:02:11.616Z,12.43
2022-10-12T20:04:46.109Z,11.17
2022-10-12T20:07:14.521Z,10.37
2022-10-12T20:09:50.084Z,17.33
2022-10-12T20:12:18.907Z,14.07
2022-10-12T20:14:54.014Z,12.17
2022-10-12T20:17:24.053Z,12.03
2022-10-12T20:19:59.013Z,13.97
2022-10-12T20:22:27.503Z,11.13
2022-10-12T20:25:08.531Z,10.57
2022-10-12T20:27:38.495Z,13.53
2022-10-12T20:30:15.173Z,13.73
2022-10-12T20:32:55.427Z,12.87
2022-10-12T20:35:24.481Z,10.80
2022-10-12T20:37:59.276Z,12.03
2022-10-12T20:40:27.914Z,12.57
2022-10-12T20:43:03.074Z,14.73
2022-10-12T20:45:31.805Z,15.00
2022-10-12T20:48:08.151Z,14.30
2022-10-12T20:50:36.738Z,11.27
2022-10-12T20:53:12.145Z,13.67
2022-10-12T20:55:41.075Z,12.83
2022-10-12T20:58:16.133Z,12.57
2022-10-12T21:00:44.739Z,15.70
2022-10-12T21:03:21.151Z,15.53
2022-10-12T21:05:49.798Z,15.20
2022-10-12T21:08:25.151Z,15.87
2022-10-12T21:10:53.636Z,14.27
2022-10-12T21:13:28.125Z,15.33
2022-10-12T21:15:57.113Z,17.07
2022-10-12T21:18:38.132Z,13.03
2022-10-12T21:21:11.697Z,14.17
2022-10-12T21:23:48.187Z,14.63
2022-10-12T21:26:18.579Z,12.80
2022-10-12T21:28:54.371Z,10.80
2022-10-12T21:31:27.023Z,17.13
2022-10-12T21:34:06.275Z,17.10
2022-10-12T21:36:36.987Z,14.23
2022-10-12T21:39:15.280Z,15.13
2022-10-12T21:41:45.279Z,16.27
2022-10-12T21:44:21.208Z,16.20
2022-10-12T21:46:49.596Z,12.33
2022-10-12T21:49:26.169Z,13.13
2022-10-12T21:51:54.899Z,12.73
2022-10-12T21:54:30.298Z,14.13
2022-10-12T21:56:58.723Z,15.93
2022-10-12T21:59:34.298Z,14.07
2022-10-12T22:02:03.125Z,13.90
2022-10-12T22:04:41.174Z,14.63
2022-10-12T22:07:09.536Z,14.57
2022-10-12T22:09:44.233Z,13.40
2022-10-12T22:12:12.839Z,17.90
2022-10-12T22:14:48.292Z,15.67
2022-10-12T22:17:17.040Z,15.97
2022-10-12T22:19:54.319Z,15.73
2022-10-12T22:22:22.999Z,14.93
2022-10-12T22:24:58.180Z,13.43
2022-10-12T22:27:26.754Z,14.70
2022-10-12T22:30:08.134Z,12.70
2022-10-12T22:32:36.651Z,12.87
2022-10-12T22:35:14.133Z,12.93
2022-10-12T22:37:42.514Z,12.33
2022-10-12T22:40:18.204Z,16.40
2022-10-12T22:42:46.611Z,12.33
2022-10-12T22:45:27.104Z,13.53
2022-10-12T22:47:56.302Z,10.40
2022-10-12T22:50:33.207Z,11.80
2022-10-12T22:53:02.156Z,12.23
2022-10-12T22:55:37.367Z,14.13
2022-10-12T22:58:05.918Z,13.30
2022-10-12T23:00:41.321Z,11.50
2022-10-12T23:03:09.825Z,10.73
2022-10-12T23:05:46.257Z,12.37
2022-10-12T23:08:15.231Z,13.13
2022-10-12T23:10:50.397Z,12.43
2022-10-12T23:13:18.797Z,10.53
2022-10-12T23:15:53.376Z,12.07
2022-10-12T23:18:22.026Z,10.90
2022-10-12T23:20:58.403Z,11.30
2022-10-12T23:23:26.808Z,10.40
2022-10-12T23:26:07.412Z,10.17
2022-10-12T23:28:36.373Z,13.23
2022-10-12T23:31:20.229Z,11.47
2022-10-12T23:33:48.682Z,15.13
2022-10-12T23:36:26.388Z,11.40
2022-10-12T23:38:55.391Z,15.40
2022-10-12T23:41:30.270Z,13.97
2022-10-12T23:43:58.995Z,13.60
2022-10-12T23:46:34.297Z,12.20
2022-10-12T23:49:03.258Z,10.53
2022-10-12T23:51:39.304Z,12.77
2022-10-12T23:54:07.893Z,11.27
2022-10-12T23:56:43.313Z,10.37
2022-10-12T23:59:11.844Z,10.50
